Decoded Metar for UBBN (NAKHCHIVAN in AZERBAIJAN) (IATA:N/A) | Meteo·Mobile Aviation Weather
aviador You're here:

UBBN Decoded Metar

NAKHCHIVAN in AZERBAIJAN
Report Time2018-11-14 11:30:00
UTC Time2018-11-14 11:57:42
Flight Rules vfr VFR
Wind120° at 10 kt
W.Decomp.*RWY 14: 9.2 kt HW 3.9 kt LCW
W.Rank120° ranks 1
Current wind is above 120° avg. (6.8)
Visibility9999 m
Phenomena:N/A
Clouds:Scattered CB 050 Hf
Broken 090 Hf
Expected CloudBase > 4,400 ft AGL from Temp-Dew spread
Ceiling9,000 ft
Temp12°C (ISA +8)
Dew Point01°C (47% RH)
AAT6.6°C
QNH1015 hPa
Density Alt6,647 ft
Elevation5,653 ft
Report Wrong Elevation
Raw Report
UBBN 141130Z 12010KT 9999 SCT050CB BKN090 12/01 Q1015 R14R/CLRD//
NOSIG RMK MT OP QFE687=

Extra information for UBBN:More info

Metar Taf Metar & Taf Last 4 Metars F.Rules Stats Wind Profile Meteogram Temp Stats Airport Information Weather charts Add Link Nearby VenuesMetar ALERT Operation Metar Decoded Social comments